createdAt,value
2024-03-04T00:00:06.623Z,98638.53
2024-03-04T00:02:35.879Z,98628.44
2024-03-04T00:05:05.623Z,98633.56
2024-03-04T00:07:34.621Z,98633.78
2024-03-04T00:10:04.028Z,98635.72
2024-03-04T00:12:33.234Z,98638.31
2024-03-04T00:15:02.256Z,98632.88
2024-03-04T00:17:34.931Z,98642.25
2024-03-04T00:20:07.214Z,98635.22
2024-03-04T00:22:36.247Z,98628.03
2024-03-04T00:25:06.994Z,98636.72
2024-03-04T00:27:35.651Z,98642.06
2024-03-04T00:30:05.115Z,98632.56
2024-03-04T00:32:35.244Z,98635.16
2024-03-04T00:35:04.843Z,98631.53
2024-03-04T00:37:33.495Z,98644.78
2024-03-04T00:40:02.533Z,98649.06
2024-03-04T00:42:31.190Z,98646.63
2024-03-04T00:45:00.246Z,98648.78
2024-03-04T00:47:28.973Z,98635.19
2024-03-04T00:49:59.394Z,98642.41
2024-03-04T00:52:28.185Z,98639.59
2024-03-04T00:54:57.282Z,98630.78
2024-03-04T00:57:25.972Z,98632.50
2024-03-04T00:59:54.959Z,98636.97
2024-03-04T01:02:23.579Z,98633.00
2024-03-04T01:04:52.564Z,98633.22
2024-03-04T01:07:22.722Z,98636.69
2024-03-04T01:09:51.639Z,98634.16
2024-03-04T01:12:20.260Z,98636.63
2024-03-04T01:14:49.299Z,98648.06
2024-03-04T01:17:18.767Z,98642.63
2024-03-04T01:19:48.072Z,98649.88
2024-03-04T01:22:18.786Z,98643.56
2024-03-04T01:24:51.343Z,98640.53
2024-03-04T01:27:21.203Z,98638.84
2024-03-04T01:29:50.188Z,98636.91
2024-03-04T01:32:19.096Z,98636.91
2024-03-04T01:34:48.044Z,98641.19
2024-03-04T01:37:16.708Z,98640.34
2024-03-04T01:39:45.672Z,98639.47
2024-03-04T01:42:15.719Z,98645.19
2024-03-04T01:44:44.683Z,98652.97
2024-03-04T01:47:19.342Z,98646.06
2024-03-04T01:49:50.361Z,98645.09
2024-03-04T01:52:19.527Z,98650.56
2024-03-04T01:54:53.894Z,98653.84
2024-03-04T01:57:23.955Z,98652.94
2024-03-04T01:59:53.825Z,98649.41
2024-03-04T02:02:22.932Z,98646.88
2024-03-04T02:04:53.187Z,98646.84
2024-03-04T02:07:21.885Z,98653.91
2024-03-04T02:09:51.390Z,98655.06
2024-03-04T02:12:20.768Z,98651.53
2024-03-04T02:14:51.153Z,98647.09
2024-03-04T02:17:20.103Z,98648.69
2024-03-04T02:19:49.154Z,98647.09
2024-03-04T02:22:19.761Z,98641.56
2024-03-04T02:24:50.133Z,98638.44
2024-03-04T02:27:18.793Z,98641.63
2024-03-04T02:29:47.771Z,98651.94
2024-03-04T02:32:17.872Z,98655.78
2024-03-04T02:34:47.655Z,98656.91
2024-03-04T02:37:16.365Z,98656.97
2024-03-04T02:39:45.527Z,98657.75
2024-03-04T02:42:15.583Z,98662.53
2024-03-04T02:44:44.713Z,98666.91
2024-03-04T02:47:13.484Z,98665.13
2024-03-04T02:49:42.576Z,98665.00
2024-03-04T02:52:11.392Z,98660.63
2024-03-04T02:54:40.503Z,98657.88
2024-03-04T02:57:09.212Z,98664.19
2024-03-04T02:59:39.557Z,98667.53
2024-03-04T03:02:08.225Z,98666.47
2024-03-04T03:04:37.382Z,98663.75
2024-03-04T03:07:06.607Z,98673.41
2024-03-04T03:09:35.587Z,98663.63
2024-03-04T03:12:04.268Z,98671.47
2024-03-04T03:14:37.026Z,98666.25
2024-03-04T03:17:08.147Z,98660.38
2024-03-04T03:19:37.605Z,98670.28
2024-03-04T03:22:06.345Z,98656.28
2024-03-04T03:24:35.270Z,98658.94
2024-03-04T03:27:03.964Z,98658.31
2024-03-04T03:29:32.996Z,98662.88
2024-03-04T03:32:01.630Z,98668.19
2024-03-04T03:34:32.076Z,98670.13
2024-03-04T03:37:00.807Z,98673.75
2024-03-04T03:39:29.812Z,98658.09
2024-03-04T03:41:58.448Z,98661.97
2024-03-04T03:44:27.346Z,98667.41
2024-03-04T03:46:55.995Z,98663.91
2024-03-04T03:49:24.983Z,98672.91
2024-03-04T03:51:55.116Z,98665.38
2024-03-04T03:54:24.082Z,98665.38
2024-03-04T03:56:52.746Z,98663.63
2024-03-04T03:59:21.730Z,98669.81
2024-03-04T04:01:50.412Z,98672.41
2024-03-04T04:04:19.412Z,98674.19
2024-03-04T04:06:48.012Z,98673.41
2024-03-04T04:09:18.288Z,98680.53
2024-03-04T04:11:47.039Z,98676.09
2024-03-04T04:14:15.984Z,98676.38
2024-03-04T04:16:44.642Z,98677.94
2024-03-04T04:19:13.808Z,98675.34
2024-03-04T04:21:42.814Z,98674.47
2024-03-04T04:24:12.142Z,98682.41
2024-03-04T04:26:42.131Z,98671.88
2024-03-04T04:29:11.077Z,98670.94
2024-03-04T04:31:39.992Z,98668.41
2024-03-04T04:34:09.144Z,98667.56
2024-03-04T04:36:37.788Z,98666.81
2024-03-04T04:39:06.762Z,98658.94
2024-03-04T04:41:36.461Z,98652.19
2024-03-04T04:44:06.988Z,98654.66
2024-03-04T04:46:35.781Z,98653.88
2024-03-04T04:49:04.993Z,98666.00
2024-03-04T04:51:33.914Z,98659.09
2024-03-04T04:54:02.909Z,98660.00
2024-03-04T04:56:31.722Z,98666.09
2024-03-04T04:59:00.697Z,98665.84
2024-03-04T05:01:31.512Z,98673.59
2024-03-04T05:04:14.850Z,98670.06
2024-03-04T05:06:49.248Z,98680.53
2024-03-04T05:09:19.640Z,98687.38
2024-03-04T05:11:48.245Z,98676.22
2024-03-04T05:14:17.828Z,98682.13
2024-03-04T05:16:48.813Z,98691.63
2024-03-04T05:19:18.649Z,98692.44
2024-03-04T05:21:47.393Z,98693.41
2024-03-04T05:24:16.291Z,98703.53
2024-03-04T05:26:45.463Z,98695.63
2024-03-04T05:29:14.501Z,98706.84
2024-03-04T05:31:58.313Z,98695.38
2024-03-04T05:34:27.683Z,98704.09
2024-03-04T05:36:58.079Z,98708.47
2024-03-04T05:39:32.312Z,98703.88
2024-03-04T05:42:01.278Z,98711.75
2024-03-04T05:44:30.224Z,98701.19
2024-03-04T05:47:00.419Z,98702.94
2024-03-04T05:49:29.913Z,98700.19
2024-03-04T05:52:00.434Z,98697.44
2024-03-04T05:54:29.464Z,98703.59
2024-03-04T05:56:58.091Z,98702.31
2024-03-04T05:59:27.233Z,98702.16
2024-03-04T06:01:55.933Z,98702.75
2024-03-04T06:04:26.840Z,98706.06
2024-03-04T06:06:55.581Z,98706.19
2024-03-04T06:09:27.726Z,98702.28
2024-03-04T06:11:59.423Z,98699.38
2024-03-04T06:14:30.244Z,98702.50
2024-03-04T06:16:58.946Z,98696.44
2024-03-04T06:19:29.492Z,98710.25
2024-03-04T06:22:07.502Z,98710.44
2024-03-04T06:24:40.837Z,98713.56
2024-03-04T06:27:09.667Z,98701.91
2024-03-04T06:29:38.590Z,98704.25
2024-03-04T06:32:09.165Z,98702.94
2024-03-04T06:34:41.604Z,98703.06
2024-03-04T06:37:10.370Z,98713.53
2024-03-04T06:39:39.436Z,98707.09
2024-03-04T06:42:08.318Z,98704.69
2024-03-04T06:44:37.629Z,98709.06
2024-03-04T06:47:06.915Z,98708.06
2024-03-04T06:49:36.392Z,98705.09
2024-03-04T06:52:06.628Z,98709.44
2024-03-04T06:54:35.679Z,98706.94
2024-03-04T06:57:04.463Z,98712.78
2024-03-04T06:59:33.472Z,98716.78
2024-03-04T07:02:02.160Z,98719.59
2024-03-04T07:04:31.255Z,98719.00
2024-03-04T07:07:00.068Z,98714.28
2024-03-04T07:09:30.644Z,98717.97
2024-03-04T07:11:59.959Z,98722.28
2024-03-04T07:14:29.097Z,98720.16
2024-03-04T07:16:57.746Z,98719.50
2024-03-04T07:19:26.794Z,98712.94
2024-03-04T07:21:55.490Z,98731.56
2024-03-04T07:24:25.191Z,98725.97
2024-03-04T07:26:55.361Z,98725.13
2024-03-04T07:29:31.632Z,98726.94
2024-03-04T07:32:08.118Z,98730.16
2024-03-04T07:34:37.130Z,98724.31
2024-03-04T07:37:06.199Z,98728.19
2024-03-04T07:39:36.108Z,98724.56
2024-03-04T07:42:06.672Z,98715.66
2024-03-04T07:44:40.209Z,98726.91
2024-03-04T07:47:08.878Z,98724.72
2024-03-04T07:49:37.863Z,98709.66
2024-03-04T07:52:07.307Z,98722.63
2024-03-04T07:54:36.484Z,98729.88
2024-03-04T07:57:13.895Z,98725.91
2024-03-04T07:59:46.694Z,98726.81
2024-03-04T08:02:15.458Z,98723.97
2024-03-04T08:04:45.327Z,98736.50
2024-03-04T08:07:14.661Z,98724.28
2024-03-04T08:09:43.754Z,98722.53
2024-03-04T08:12:16.154Z,98732.50
2024-03-04T08:14:45.209Z,98718.38
2024-03-04T08:17:17.029Z,98722.28
2024-03-04T08:19:46.234Z,98714.13
2024-03-04T08:22:15.125Z,98719.44
2024-03-04T08:24:44.218Z,98728.75
2024-03-04T08:27:14.725Z,98723.16
2024-03-04T08:29:44.111Z,98720.06
2024-03-04T08:32:12.811Z,98727.72
2024-03-04T08:34:44.417Z,98718.97
2024-03-04T08:37:14.873Z,98717.66
2024-03-04T08:39:43.915Z,98712.75
2024-03-04T08:42:13.015Z,98716.31
2024-03-04T08:44:43.413Z,98717.53
2024-03-04T08:47:12.209Z,98711.94
2024-03-04T08:49:41.176Z,98713.41
2024-03-04T08:52:09.841Z,98714.88
2024-03-04T08:54:38.874Z,98723.09
2024-03-04T08:57:07.768Z,98717.09
2024-03-04T08:59:36.713Z,98717.44
2024-03-04T09:02:08.538Z,98718.63
2024-03-04T09:04:37.828Z,98717.97
2024-03-04T09:07:06.867Z,98710.06
2024-03-04T09:09:35.792Z,98715.47
2024-03-04T09:12:05.212Z,98709.59
2024-03-04T09:14:34.223Z,98708.72
2024-03-04T09:17:03.216Z,98708.41
2024-03-04T09:19:34.150Z,98704.44
2024-03-04T09:22:05.188Z,98715.81
2024-03-04T09:24:34.333Z,98710.31
2024-03-04T09:27:03.495Z,98704.59
2024-03-04T09:29:32.528Z,98713.97
2024-03-04T09:32:01.344Z,98714.88
2024-03-04T09:34:30.432Z,98710.97
2024-03-04T09:37:02.511Z,98717.63
2024-03-04T09:39:31.581Z,98712.81
2024-03-04T09:42:01.133Z,98708.72
2024-03-04T09:44:31.401Z,98714.59
2024-03-04T09:47:00.247Z,98707.91
2024-03-04T09:49:31.169Z,98716.00
2024-03-04T09:52:04.417Z,98713.84
2024-03-04T09:54:34.320Z,98713.50
2024-03-04T09:57:03.148Z,98716.41
2024-03-04T09:59:33.796Z,98716.66
2024-03-04T10:02:03.202Z,98710.78
2024-03-04T10:04:33.219Z,98703.66
2024-03-04T10:07:05.871Z,98707.69
2024-03-04T10:09:35.436Z,98700.31
2024-03-04T10:12:04.897Z,98700.31
2024-03-04T10:14:34.124Z,98694.94
2024-03-04T10:17:02.945Z,98693.78
2024-03-04T10:19:32.022Z,98683.47
2024-03-04T10:22:00.852Z,98674.34
2024-03-04T10:24:31.317Z,98680.34
2024-03-04T10:27:00.802Z,98677.28
2024-03-04T10:29:29.828Z,98675.22
2024-03-04T10:31:58.517Z,98673.44
2024-03-04T10:34:27.491Z,98665.34
2024-03-04T10:36:59.238Z,98666.31
2024-03-04T10:39:31.246Z,98661.44
2024-03-04T10:42:04.201Z,98663.06
2024-03-04T10:44:33.686Z,98664.09
2024-03-04T10:47:04.363Z,98658.44
2024-03-04T10:49:33.913Z,98652.53
2024-03-04T10:52:12.821Z,98643.53
2024-03-04T10:54:43.468Z,98640.22
2024-03-04T10:57:27.979Z,98635.16
2024-03-04T10:59:59.196Z,98634.53
2024-03-04T11:02:43.939Z,98623.41
2024-03-04T11:05:13.484Z,98615.97
2024-03-04T11:07:45.474Z,98615.00
2024-03-04T11:10:26.145Z,98599.13
2024-03-04T11:13:05.486Z,98605.78
2024-03-04T11:15:39.360Z,98604.53
2024-03-04T11:18:16.597Z,98599.31
2024-03-04T11:20:47.723Z,98597.28
2024-03-04T11:23:17.369Z,98587.41
2024-03-04T11:25:46.903Z,98586.22
2024-03-04T11:28:20.630Z,98583.81
2024-03-04T11:30:51.808Z,98585.16
2024-03-04T11:33:41.858Z,98583.03
2024-03-04T11:36:12.138Z,98572.97
2024-03-04T11:38:45.624Z,98575.59
2024-03-04T11:41:15.350Z,98574.38
2024-03-04T11:43:46.840Z,98567.16
2024-03-04T11:46:16.800Z,98564.72
2024-03-04T11:48:47.688Z,98561.53
2024-03-04T11:51:37.263Z,98560.97
2024-03-04T11:54:07.317Z,98557.44
2024-03-04T11:56:39.211Z,98550.72
2024-03-04T11:59:13.417Z,98551.72
2024-03-04T12:01:42.791Z,98544.53
2024-03-04T12:04:11.598Z,98539.44
2024-03-04T12:06:41.346Z,98534.94
2024-03-04T12:09:29.010Z,98540.31
2024-03-04T12:12:00.878Z,98542.22
2024-03-04T12:14:31.363Z,98537.66
2024-03-04T12:17:01.336Z,98530.34
2024-03-04T12:19:30.336Z,98529.25
2024-03-04T12:21:59.356Z,98516.53
2024-03-04T12:24:27.989Z,98524.16
2024-03-04T12:26:57.201Z,98525.69
2024-03-04T12:29:27.343Z,98528.25
2024-03-04T12:32:01.464Z,98513.41
2024-03-04T12:34:31.204Z,98513.31
2024-03-04T12:37:01.115Z,98510.66
2024-03-04T12:39:30.011Z,98510.50
2024-03-04T12:41:59.029Z,98518.19
2024-03-04T12:44:28.871Z,98513.81
2024-03-04T12:46:59.200Z,98508.56
2024-03-04T12:49:30.685Z,98506.69
2024-03-04T12:52:04.988Z,98512.53
2024-03-04T12:54:36.486Z,98519.75
2024-03-04T12:57:05.967Z,98509.31
2024-03-04T12:59:34.571Z,98511.66
2024-03-04T13:02:05.406Z,98508.06
2024-03-04T13:04:34.092Z,98503.34
2024-03-04T13:07:03.195Z,98505.25
2024-03-04T13:09:31.871Z,98497.00
2024-03-04T13:12:00.896Z,98491.63
2024-03-04T13:14:34.259Z,98492.28
2024-03-04T13:17:05.164Z,98491.72
2024-03-04T13:19:34.723Z,98488.69
2024-03-04T13:22:03.835Z,98485.00
2024-03-04T13:24:32.514Z,98485.16
2024-03-04T13:27:01.540Z,98489.25
2024-03-04T13:29:32.663Z,98482.72
2024-03-04T13:32:02.957Z,98484.88
2024-03-04T13:34:33.066Z,98478.63
2024-03-04T13:37:02.258Z,98473.31
2024-03-04T13:39:30.905Z,98468.38
2024-03-04T13:42:00.770Z,98468.28
2024-03-04T13:44:29.532Z,98465.34
2024-03-04T13:46:58.614Z,98457.28
2024-03-04T13:49:27.288Z,98460.34
2024-03-04T13:51:57.682Z,98462.03
2024-03-04T13:54:27.027Z,98451.72
2024-03-04T13:56:58.769Z,98454.28
2024-03-04T13:59:29.885Z,98445.19
2024-03-04T14:02:00.281Z,98455.59
2024-03-04T14:04:29.031Z,98446.72
2024-03-04T14:06:59.858Z,98457.22
2024-03-04T14:09:30.424Z,98445.28
2024-03-04T14:11:59.359Z,98445.34
2024-03-04T14:14:28.780Z,98442.06
2024-03-04T14:16:57.910Z,98445.00
2024-03-04T14:19:26.616Z,98445.38
2024-03-04T14:21:55.579Z,98442.63
2024-03-04T14:24:25.639Z,98446.88
2024-03-04T14:26:54.742Z,98452.28
2024-03-04T14:29:23.425Z,98444.31
2024-03-04T14:31:53.507Z,98440.81
2024-03-04T14:34:22.913Z,98437.25
2024-03-04T14:36:54.046Z,98437.22
2024-03-04T14:39:22.690Z,98433.25
2024-03-04T14:41:52.995Z,98431.72
2024-03-04T14:44:22.172Z,98426.63
2024-03-04T14:46:51.201Z,98424.16
2024-03-04T14:49:19.837Z,98422.75
2024-03-04T14:51:48.752Z,98422.53
2024-03-04T14:54:17.410Z,98423.19
2024-03-04T14:56:47.212Z,98424.56
2024-03-04T14:59:17.254Z,98431.47
2024-03-04T15:01:46.279Z,98422.16
2024-03-04T15:04:15.020Z,98414.00
2024-03-04T15:06:45.100Z,98415.06
2024-03-04T15:09:13.784Z,98414.13
2024-03-04T15:11:43.751Z,98412.31
2024-03-04T15:14:12.448Z,98410.34
2024-03-04T15:16:49.384Z,98408.72
2024-03-04T15:19:18.325Z,98406.66
2024-03-04T15:21:49.171Z,98409.31
2024-03-04T15:24:17.815Z,98407.88
2024-03-04T15:26:46.747Z,98411.28
2024-03-04T15:29:18.400Z,98406.91
2024-03-04T15:31:50.657Z,98411.19
2024-03-04T15:34:19.491Z,98414.09
2024-03-04T15:36:50.957Z,98412.31
2024-03-04T15:39:20.185Z,98410.81
2024-03-04T15:41:49.264Z,98400.97
2024-03-04T15:44:18.143Z,98407.28
2024-03-04T15:46:49.470Z,98410.78
2024-03-04T15:49:21.080Z,98408.00
2024-03-04T15:51:50.218Z,98415.13
2024-03-04T15:54:18.894Z,98412.56
2024-03-04T15:56:47.768Z,98420.75
2024-03-04T15:59:16.681Z,98411.91
2024-03-04T16:01:45.778Z,98408.06
2024-03-04T16:04:14.547Z,98414.81
2024-03-04T16:06:45.407Z,98411.41
2024-03-04T16:09:14.213Z,98413.94
2024-03-04T16:11:43.367Z,98415.53
2024-03-04T16:14:14.465Z,98417.78
2024-03-04T16:16:43.509Z,98426.16
2024-03-04T16:19:12.250Z,98419.94
2024-03-04T16:21:41.267Z,98422.06
2024-03-04T16:24:11.312Z,98423.16
2024-03-04T16:26:40.258Z,98424.16
2024-03-04T16:29:08.915Z,98416.72
2024-03-04T16:31:40.901Z,98427.41
2024-03-04T16:34:09.629Z,98424.31
2024-03-04T16:36:38.614Z,98432.25
2024-03-04T16:39:14.646Z,98438.31
2024-03-04T16:41:45.703Z,98436.25
2024-03-04T16:44:15.109Z,98437.88
2024-03-04T16:46:44.311Z,98434.63
2024-03-04T16:49:14.161Z,98434.00
2024-03-04T16:51:48.794Z,98431.50
2024-03-04T16:54:18.085Z,98436.50
2024-03-04T16:56:49.045Z,98431.88
2024-03-04T16:59:17.807Z,98429.53
2024-03-04T17:01:49.680Z,98436.00
2024-03-04T17:04:18.997Z,98439.28
2024-03-04T17:06:48.127Z,98442.97
2024-03-04T17:09:19.317Z,98453.84
2024-03-04T17:11:49.808Z,98443.16
2024-03-04T17:14:18.492Z,98438.72
2024-03-04T17:16:48.269Z,98441.69
2024-03-04T17:19:20.792Z,98446.72
2024-03-04T17:21:49.850Z,98451.59
2024-03-04T17:24:19.144Z,98450.91
2024-03-04T17:26:49.590Z,98450.97
2024-03-04T17:29:18.283Z,98449.19
2024-03-04T17:31:47.697Z,98446.47
2024-03-04T17:34:16.389Z,98448.22
2024-03-04T17:36:47.013Z,98437.84
2024-03-04T17:39:15.790Z,98443.44
2024-03-04T17:41:44.833Z,98442.34
2024-03-04T17:44:14.835Z,98433.91
2024-03-04T17:46:44.830Z,98437.34
2024-03-04T17:49:13.960Z,98435.66
2024-03-04T17:51:43.360Z,98429.44
2024-03-04T17:54:12.565Z,98440.13
2024-03-04T17:56:43.469Z,98432.06
2024-03-04T17:59:14.914Z,98434.44
2024-03-04T18:01:45.057Z,98432.94
2024-03-04T18:04:14.128Z,98422.94
2024-03-04T18:06:43.068Z,98411.88
2024-03-04T18:09:11.758Z,98426.91
2024-03-04T18:11:41.276Z,98417.19
2024-03-04T18:14:10.064Z,98418.91
2024-03-04T18:16:40.447Z,98418.38
2024-03-04T18:19:09.184Z,98414.22
2024-03-04T18:21:38.323Z,98417.38
2024-03-04T18:24:07.915Z,98411.38
2024-03-04T18:26:37.170Z,98414.00
2024-03-04T18:29:06.003Z,98409.41
2024-03-04T18:31:35.444Z,98417.88
2024-03-04T18:34:05.753Z,98419.66
2024-03-04T18:36:36.021Z,98417.00
2024-03-04T18:39:05.088Z,98414.69
2024-03-04T18:41:34.143Z,98405.53
2024-03-04T18:44:03.976Z,98412.78
2024-03-04T18:46:33.432Z,98416.44
2024-03-04T18:49:02.175Z,98417.69
2024-03-04T18:51:32.548Z,98426.41
2024-03-04T18:54:01.172Z,98425.59
2024-03-04T18:56:30.305Z,98416.09
2024-03-04T18:58:58.943Z,98412.53
2024-03-04T19:01:30.637Z,98414.09
2024-03-04T19:03:59.400Z,98404.50
2024-03-04T19:06:28.386Z,98409.06
2024-03-04T19:08:58.504Z,98407.28
2024-03-04T19:11:27.561Z,98409.28
2024-03-04T19:13:56.232Z,98413.31
2024-03-04T19:16:25.252Z,98415.66
2024-03-04T19:18:54.061Z,98405.59
2024-03-04T19:21:26.328Z,98411.09
2024-03-04T19:23:55.811Z,98414.44
2024-03-04T19:26:26.882Z,98407.59
2024-03-04T19:28:55.555Z,98403.19
2024-03-04T19:31:25.567Z,98412.72
2024-03-04T19:33:54.685Z,98413.34
2024-03-04T19:36:24.418Z,98416.81
2024-03-04T19:38:53.116Z,98419.63
2024-03-04T19:41:23.091Z,98423.94
2024-03-04T19:43:53.877Z,98408.16
2024-03-04T19:46:24.162Z,98416.28
2024-03-04T19:48:54.546Z,98423.94
2024-03-04T19:51:24.097Z,98413.91
2024-03-04T19:53:54.768Z,98410.47
2024-03-04T19:56:24.033Z,98409.81
2024-03-04T19:58:54.206Z,98408.66
2024-03-04T20:01:23.552Z,98410.44
2024-03-04T20:03:52.322Z,98403.06
2024-03-04T20:06:21.343Z,98413.44
2024-03-04T20:08:51.244Z,98406.38
2024-03-04T20:11:20.580Z,98404.69
2024-03-04T20:13:50.138Z,98402.53
2024-03-04T20:16:22.920Z,98402.38
2024-03-04T20:18:51.979Z,98403.41
2024-03-04T20:21:21.156Z,98405.84
2024-03-04T20:23:50.224Z,98403.25
2024-03-04T20:26:19.611Z,98398.88
2024-03-04T20:28:48.520Z,98403.97
2024-03-04T20:31:21.476Z,98404.22
2024-03-04T20:33:51.099Z,98403.22
2024-03-04T20:36:20.585Z,98398.13
2024-03-04T20:38:49.280Z,98393.63
2024-03-04T20:41:18.305Z,98403.78
2024-03-04T20:43:47.128Z,98392.53
2024-03-04T20:46:16.230Z,98394.88
2024-03-04T20:48:46.283Z,98403.06
2024-03-04T20:51:15.237Z,98395.69
2024-03-04T20:53:43.889Z,98399.28
2024-03-04T20:56:12.809Z,98397.44
2024-03-04T20:58:41.412Z,98390.91
2024-03-04T21:01:10.466Z,98394.81
2024-03-04T21:03:39.932Z,98400.63
2024-03-04T21:06:11.501Z,98393.69
2024-03-04T21:08:40.255Z,98397.88
2024-03-04T21:11:09.401Z,98401.84
2024-03-04T21:13:38.127Z,98407.72
2024-03-04T21:16:07.760Z,98406.13
2024-03-04T21:18:36.476Z,98394.47
2024-03-04T21:21:05.888Z,98399.72
2024-03-04T21:23:36.043Z,98402.69
2024-03-04T21:26:06.108Z,98395.22
2024-03-04T21:28:34.862Z,98395.66
2024-03-04T21:31:05.038Z,98390.03
2024-03-04T21:33:33.782Z,98390.47
2024-03-04T21:36:02.785Z,98398.13
2024-03-04T21:38:33.313Z,98385.94
2024-03-04T21:41:04.513Z,98386.91
2024-03-04T21:43:33.206Z,98390.25
2024-03-04T21:46:03.551Z,98391.91
2024-03-04T21:48:33.427Z,98392.94
2024-03-04T21:51:03.250Z,98396.31
2024-03-04T21:53:32.259Z,98394.72
2024-03-04T21:56:01.540Z,98398.13
2024-03-04T21:58:31.707Z,98394.69
2024-03-04T22:01:00.668Z,98399.91
2024-03-04T22:03:29.345Z,98399.13
2024-03-04T22:05:58.447Z,98394.03
2024-03-04T22:08:27.238Z,98387.84
2024-03-04T22:10:57.028Z,98391.53
2024-03-04T22:13:25.913Z,98387.34
2024-03-04T22:15:56.618Z,98388.06
2024-03-04T22:18:25.261Z,98383.66
2024-03-04T22:20:54.309Z,98388.47
2024-03-04T22:23:22.920Z,98390.34
2024-03-04T22:25:51.970Z,98390.81
2024-03-04T22:28:20.760Z,98375.94
2024-03-04T22:30:52.596Z,98379.72
2024-03-04T22:33:22.694Z,98383.72
2024-03-04T22:35:51.599Z,98379.47
2024-03-04T22:38:20.411Z,98379.78
2024-03-04T22:40:50.858Z,98371.81
2024-03-04T22:43:20.416Z,98369.56
2024-03-04T22:45:49.326Z,98383.06
2024-03-04T22:48:19.973Z,98383.22
2024-03-04T22:50:50.490Z,98380.53
2024-03-04T22:53:19.112Z,98379.69
2024-03-04T22:55:48.214Z,98375.94
2024-03-04T22:58:17.027Z,98380.78
2024-03-04T23:00:57.415Z,98370.38
2024-03-04T23:03:27.093Z,98372.72
2024-03-04T23:05:58.439Z,98373.25
2024-03-04T23:08:27.428Z,98371.22
2024-03-04T23:10:56.381Z,98372.19
2024-03-04T23:13:25.172Z,98372.88
2024-03-04T23:15:54.212Z,98372.41
2024-03-04T23:18:22.863Z,98361.63
2024-03-04T23:20:51.833Z,98373.66
2024-03-04T23:23:22.327Z,98374.41
2024-03-04T23:25:51.401Z,98375.19
2024-03-04T23:28:20.423Z,98381.53
2024-03-04T23:30:50.405Z,98377.94
2024-03-04T23:33:19.168Z,98381.97
2024-03-04T23:35:48.716Z,98369.66
2024-03-04T23:38:22.064Z,98373.22
2024-03-04T23:40:54.724Z,98370.69
2024-03-04T23:43:23.798Z,98363.81
2024-03-04T23:45:53.136Z,98368.25
2024-03-04T23:48:22.208Z,98374.25
2024-03-04T23:50:51.111Z,98374.13
2024-03-04T23:53:20.067Z,98366.69
2024-03-04T23:55:48.994Z,98382.88
2024-03-04T23:58:19.363Z,98380.34
